sensor_id;sensor_type;location;lat;lon;timestamp;P1;durP1;ratioP1;P2;durP2;ratioP2
38023;SDS011;23834;48.080;11.682;2023-08-06T00:01:02;1.67;;;1.57;;
38023;SDS011;23834;48.080;11.682;2023-08-06T00:03:27;1.70;;;1.50;;
38023;SDS011;23834;48.080;11.682;2023-08-06T00:05:53;1.80;;;1.70;;
38023;SDS011;23834;48.080;11.682;2023-08-06T00:08:18;1.47;;;1.37;;
38023;SDS011;23834;48.080;11.682;2023-08-06T00:10:43;1.80;;;1.70;;
38023;SDS011;23834;48.080;11.682;2023-08-06T00:13:08;1.77;;;1.67;;
38023;SDS011;23834;48.080;11.682;2023-08-06T00:15:33;1.40;;;1.30;;
38023;SDS011;23834;48.080;11.682;2023-08-06T00:17:58;1.40;;;1.30;;
38023;SDS011;23834;48.080;11.682;2023-08-06T00:20:24;1.67;;;1.57;;
38023;SDS011;23834;48.080;11.682;2023-08-06T00:22:49;1.40;;;1.30;;
38023;SDS011;23834;48.080;11.682;2023-08-06T00:25:14;1.70;;;1.60;;
38023;SDS011;23834;48.080;11.682;2023-08-06T00:27:39;1.63;;;1.53;;
38023;SDS011;23834;48.080;11.682;2023-08-06T00:30:04;1.43;;;1.33;;
38023;SDS011;23834;48.080;11.682;2023-08-06T00:32:30;1.43;;;1.33;;
38023;SDS011;23834;48.080;11.682;2023-08-06T00:34:55;1.80;;;1.70;;
38023;SDS011;23834;48.080;11.682;2023-08-06T00:37:20;1.50;;;1.40;;
38023;SDS011;23834;48.080;11.682;2023-08-06T00:39:45;1.90;;;1.80;;
38023;SDS011;23834;48.080;11.682;2023-08-06T00:42:11;1.57;;;1.50;;
38023;SDS011;23834;48.080;11.682;2023-08-06T00:44:36;1.80;;;1.70;;
38023;SDS011;23834;48.080;11.682;2023-08-06T00:47:01;1.50;;;1.40;;
38023;SDS011;23834;48.080;11.682;2023-08-06T00:49:27;1.50;;;1.40;;
38023;SDS011;23834;48.080;11.682;2023-08-06T00:51:52;1.50;;;1.40;;
38023;SDS011;23834;48.080;11.682;2023-08-06T00:54:17;1.60;;;1.50;;
38023;SDS011;23834;48.080;11.682;2023-08-06T00:56:42;1.63;;;1.53;;
38023;SDS011;23834;48.080;11.682;2023-08-06T00:59:08;1.53;;;1.43;;
38023;SDS011;23834;48.080;11.682;2023-08-06T01:01:35;1.60;;;1.50;;
38023;SDS011;23834;48.080;11.682;2023-08-06T01:04:00;1.47;;;1.37;;
38023;SDS011;23834;48.080;11.682;2023-08-06T01:06:33;1.30;;;1.20;;
38023;SDS011;23834;48.080;11.682;2023-08-06T01:09:05;1.40;;;1.30;;
38023;SDS011;23834;48.080;11.682;2023-08-06T01:14:08;1.80;;;1.70;;
38023;SDS011;23834;48.080;11.682;2023-08-06T01:16:37;1.77;;;1.67;;
38023;SDS011;23834;48.080;11.682;2023-08-06T01:19:02;1.90;;;1.80;;
38023;SDS011;23834;48.080;11.682;2023-08-06T01:21:27;1.50;;;1.40;;
38023;SDS011;23834;48.080;11.682;2023-08-06T01:23:53;1.87;;;1.77;;
38023;SDS011;23834;48.080;11.682;2023-08-06T01:28:48;1.80;;;1.70;;
38023;SDS011;23834;48.080;11.682;2023-08-06T01:31:22;2.50;;;1.70;;
38023;SDS011;23834;48.080;11.682;2023-08-06T01:33:47;1.93;;;1.53;;
38023;SDS011;23834;48.080;11.682;2023-08-06T01:36:13;1.63;;;1.53;;
38023;SDS011;23834;48.080;11.682;2023-08-06T01:38:40;1.53;;;1.40;;
38023;SDS011;23834;48.080;11.682;2023-08-06T01:41:05;1.63;;;1.53;;
38023;SDS011;23834;48.080;11.682;2023-08-06T01:43:30;2.00;;;1.90;;
38023;SDS011;23834;48.080;11.682;2023-08-06T01:45:55;1.97;;;1.87;;
38023;SDS011;23834;48.080;11.682;2023-08-06T01:48:20;1.60;;;1.50;;
38023;SDS011;23834;48.080;11.682;2023-08-06T01:50:45;1.70;;;1.60;;
38023;SDS011;23834;48.080;11.682;2023-08-06T01:53:11;1.63;;;1.53;;
38023;SDS011;23834;48.080;11.682;2023-08-06T01:55:36;1.50;;;1.40;;
38023;SDS011;23834;48.080;11.682;2023-08-06T01:58:01;1.63;;;1.40;;
38023;SDS011;23834;48.080;11.682;2023-08-06T02:00:26;1.90;;;1.80;;
38023;SDS011;23834;48.080;11.682;2023-08-06T02:02:52;1.83;;;1.73;;
38023;SDS011;23834;48.080;11.682;2023-08-06T02:05:18;1.77;;;1.67;;
38023;SDS011;23834;48.080;11.682;2023-08-06T02:07:43;1.47;;;1.37;;
38023;SDS011;23834;48.080;11.682;2023-08-06T02:10:08;1.60;;;1.50;;
38023;SDS011;23834;48.080;11.682;2023-08-06T02:12:33;1.70;;;1.60;;
38023;SDS011;23834;48.080;11.682;2023-08-06T02:14:58;1.50;;;1.40;;
38023;SDS011;23834;48.080;11.682;2023-08-06T02:17:24;1.33;;;1.33;;
38023;SDS011;23834;48.080;11.682;2023-08-06T02:19:49;2.07;;;1.67;;
38023;SDS011;23834;48.080;11.682;2023-08-06T02:22:14;1.60;;;1.50;;
38023;SDS011;23834;48.080;11.682;2023-08-06T02:24:39;1.80;;;1.70;;
38023;SDS011;23834;48.080;11.682;2023-08-06T02:27:04;1.60;;;1.50;;
38023;SDS011;23834;48.080;11.682;2023-08-06T02:29:29;1.70;;;1.60;;
38023;SDS011;23834;48.080;11.682;2023-08-06T02:31:55;1.77;;;1.67;;
38023;SDS011;23834;48.080;11.682;2023-08-06T02:34:20;1.70;;;1.60;;
38023;SDS011;23834;48.080;11.682;2023-08-06T02:36:45;1.50;;;1.40;;
38023;SDS011;23834;48.080;11.682;2023-08-06T02:39:10;1.63;;;1.40;;
38023;SDS011;23834;48.080;11.682;2023-08-06T02:41:35;1.57;;;1.47;;
38023;SDS011;23834;48.080;11.682;2023-08-06T02:44:01;1.33;;;1.33;;
38023;SDS011;23834;48.080;11.682;2023-08-06T02:46:26;1.30;;;1.20;;
38023;SDS011;23834;48.080;11.682;2023-08-06T02:48:51;1.80;;;1.67;;
38023;SDS011;23834;48.080;11.682;2023-08-06T02:51:16;1.93;;;1.57;;
38023;SDS011;23834;48.080;11.682;2023-08-06T02:53:41;1.60;;;1.50;;
38023;SDS011;23834;48.080;11.682;2023-08-06T02:56:06;2.07;;;1.87;;
38023;SDS011;23834;48.080;11.682;2023-08-06T02:58:32;1.60;;;1.50;;
38023;SDS011;23834;48.080;11.682;2023-08-06T03:01:04;1.50;;;1.40;;
38023;SDS011;23834;48.080;11.682;2023-08-06T03:03:30;1.50;;;1.40;;
38023;SDS011;23834;48.080;11.682;2023-08-06T03:05:55;1.63;;;1.53;;
38023;SDS011;23834;48.080;11.682;2023-08-06T03:08:21;1.77;;;1.67;;
38023;SDS011;23834;48.080;11.682;2023-08-06T03:10:47;1.93;;;1.60;;
38023;SDS011;23834;48.080;11.682;2023-08-06T03:13:12;1.30;;;1.30;;
38023;SDS011;23834;48.080;11.682;2023-08-06T03:15:38;1.40;;;1.30;;
38023;SDS011;23834;48.080;11.682;2023-08-06T03:18:03;1.40;;;1.40;;
38023;SDS011;23834;48.080;11.682;2023-08-06T03:20:28;1.93;;;1.80;;
38023;SDS011;23834;48.080;11.682;2023-08-06T03:22:53;2.07;;;1.97;;
38023;SDS011;23834;48.080;11.682;2023-08-06T03:25:18;2.60;;;1.40;;
38023;SDS011;23834;48.080;11.682;2023-08-06T03:27:43;1.73;;;1.47;;
38023;SDS011;23834;48.080;11.682;2023-08-06T03:30:09;1.50;;;1.40;;
38023;SDS011;23834;48.080;11.682;2023-08-06T03:32:34;1.57;;;1.47;;
38023;SDS011;23834;48.080;11.682;2023-08-06T03:34:59;1.60;;;1.50;;
38023;SDS011;23834;48.080;11.682;2023-08-06T03:37:25;1.70;;;1.60;;
38023;SDS011;23834;48.080;11.682;2023-08-06T03:39:50;1.43;;;1.33;;
38023;SDS011;23834;48.080;11.682;2023-08-06T03:42:15;1.50;;;1.40;;
38023;SDS011;23834;48.080;11.682;2023-08-06T03:44:40;1.57;;;1.47;;
38023;SDS011;23834;48.080;11.682;2023-08-06T03:47:05;1.60;;;1.50;;
38023;SDS011;23834;48.080;11.682;2023-08-06T03:49:31;1.43;;;1.33;;
38023;SDS011;23834;48.080;11.682;2023-08-06T03:51:56;1.63;;;1.53;;
38023;SDS011;23834;48.080;11.682;2023-08-06T03:54:21;1.70;;;1.60;;
38023;SDS011;23834;48.080;11.682;2023-08-06T03:56:46;1.53;;;1.43;;
38023;SDS011;23834;48.080;11.682;2023-08-06T03:59:11;1.50;;;1.40;;
38023;SDS011;23834;48.080;11.682;2023-08-06T04:01:37;1.70;;;1.60;;
38023;SDS011;23834;48.080;11.682;2023-08-06T04:04:02;1.50;;;1.40;;
38023;SDS011;23834;48.080;11.682;2023-08-06T04:06:27;1.60;;;1.50;;
38023;SDS011;23834;48.080;11.682;2023-08-06T04:08:52;1.90;;;1.70;;
38023;SDS011;23834;48.080;11.682;2023-08-06T04:11:17;1.30;;;1.30;;
38023;SDS011;23834;48.080;11.682;2023-08-06T04:13:43;1.27;;;1.20;;
38023;SDS011;23834;48.080;11.682;2023-08-06T04:16:09;1.93;;;1.83;;
38023;SDS011;23834;48.080;11.682;2023-08-06T04:18:34;1.47;;;1.37;;
38023;SDS011;23834;48.080;11.682;2023-08-06T04:20:59;2.03;;;1.30;;
38023;SDS011;23834;48.080;11.682;2023-08-06T04:23:26;1.50;;;1.40;;
38023;SDS011;23834;48.080;11.682;2023-08-06T04:25:51;1.30;;;1.20;;
38023;SDS011;23834;48.080;11.682;2023-08-06T04:28:16;1.37;;;1.27;;
38023;SDS011;23834;48.080;11.682;2023-08-06T04:30:41;1.67;;;1.57;;
38023;SDS011;23834;48.080;11.682;2023-08-06T04:33:07;1.50;;;1.40;;
38023;SDS011;23834;48.080;11.682;2023-08-06T04:35:32;1.20;;;1.20;;
38023;SDS011;23834;48.080;11.682;2023-08-06T04:37:57;1.67;;;1.20;;
38023;SDS011;23834;48.080;11.682;2023-08-06T04:40:22;1.70;;;1.60;;
38023;SDS011;23834;48.080;11.682;2023-08-06T04:42:47;0.97;;;0.97;;
38023;SDS011;23834;48.080;11.682;2023-08-06T04:45:13;1.50;;;1.40;;
38023;SDS011;23834;48.080;11.682;2023-08-06T04:47:38;1.30;;;1.30;;
38023;SDS011;23834;48.080;11.682;2023-08-06T04:50:04;1.40;;;1.30;;
38023;SDS011;23834;48.080;11.682;2023-08-06T04:52:29;4.03;;;1.43;;
38023;SDS011;23834;48.080;11.682;2023-08-06T04:54:57;1.50;;;1.40;;
38023;SDS011;23834;48.080;11.682;2023-08-06T04:57:22;1.40;;;1.30;;
38023;SDS011;23834;48.080;11.682;2023-08-06T04:59:47;1.30;;;1.20;;
38023;SDS011;23834;48.080;11.682;2023-08-06T05:02:12;1.50;;;1.40;;
38023;SDS011;23834;48.080;11.682;2023-08-06T05:04:37;1.17;;;1.17;;
38023;SDS011;23834;48.080;11.682;2023-08-06T05:07:03;1.77;;;1.63;;
38023;SDS011;23834;48.080;11.682;2023-08-06T05:09:28;1.10;;;1.10;;
38023;SDS011;23834;48.080;11.682;2023-08-06T05:11:53;1.40;;;1.30;;
38023;SDS011;23834;48.080;11.682;2023-08-06T05:14:19;1.20;;;1.10;;
38023;SDS011;23834;48.080;11.682;2023-08-06T05:16:44;1.50;;;1.33;;
38023;SDS011;23834;48.080;11.682;2023-08-06T05:19:09;1.40;;;1.30;;
38023;SDS011;23834;48.080;11.682;2023-08-06T05:21:34;1.70;;;1.60;;
38023;SDS011;23834;48.080;11.682;2023-08-06T05:23:59;1.30;;;1.20;;
38023;SDS011;23834;48.080;11.682;2023-08-06T05:26:24;1.43;;;1.33;;
38023;SDS011;23834;48.080;11.682;2023-08-06T05:28:50;1.47;;;1.37;;
38023;SDS011;23834;48.080;11.682;2023-08-06T05:31:15;1.17;;;1.17;;
38023;SDS011;23834;48.080;11.682;2023-08-06T05:33:40;1.40;;;1.30;;
38023;SDS011;23834;48.080;11.682;2023-08-06T05:36:05;1.20;;;1.20;;
38023;SDS011;23834;48.080;11.682;2023-08-06T05:38:30;1.00;;;1.00;;
38023;SDS011;23834;48.080;11.682;2023-08-06T05:40:56;1.20;;;1.10;;
38023;SDS011;23834;48.080;11.682;2023-08-06T05:43:21;1.10;;;1.10;;
38023;SDS011;23834;48.080;11.682;2023-08-06T05:45:46;1.60;;;1.50;;
38023;SDS011;23834;48.080;11.682;2023-08-06T05:48:14;1.63;;;1.53;;
38023;SDS011;23834;48.080;11.682;2023-08-06T05:50:39;1.63;;;1.53;;
38023;SDS011;23834;48.080;11.682;2023-08-06T05:53:04;1.40;;;1.30;;
38023;SDS011;23834;48.080;11.682;2023-08-06T05:55:29;1.40;;;1.30;;
38023;SDS011;23834;48.080;11.682;2023-08-06T05:57:56;2.27;;;1.60;;
38023;SDS011;23834;48.080;11.682;2023-08-06T06:00:21;1.00;;;1.00;;
38023;SDS011;23834;48.080;11.682;2023-08-06T06:02:46;1.53;;;1.30;;
38023;SDS011;23834;48.080;11.682;2023-08-06T06:05:12;1.33;;;1.17;;
38023;SDS011;23834;48.080;11.682;2023-08-06T06:07:37;1.33;;;1.23;;
38023;SDS011;23834;48.080;11.682;2023-08-06T06:10:02;1.40;;;1.30;;
38023;SDS011;23834;48.080;11.682;2023-08-06T06:12:27;1.40;;;1.30;;
38023;SDS011;23834;48.080;11.682;2023-08-06T06:14:52;1.60;;;1.50;;
38023;SDS011;23834;48.080;11.682;2023-08-06T06:17:18;1.10;;;1.00;;
38023;SDS011;23834;48.080;11.682;2023-08-06T06:19:43;1.57;;;1.47;;
38023;SDS011;23834;48.080;11.682;2023-08-06T06:22:08;1.20;;;1.10;;
38023;SDS011;23834;48.080;11.682;2023-08-06T06:24:34;1.40;;;1.27;;
38023;SDS011;23834;48.080;11.682;2023-08-06T06:26:59;1.47;;;1.30;;
38023;SDS011;23834;48.080;11.682;2023-08-06T06:29:25;1.37;;;1.33;;
38023;SDS011;23834;48.080;11.682;2023-08-06T06:31:50;1.10;;;1.10;;
38023;SDS011;23834;48.080;11.682;2023-08-06T06:34:15;1.53;;;1.43;;
38023;SDS011;23834;48.080;11.682;2023-08-06T06:36:40;1.30;;;1.10;;
38023;SDS011;23834;48.080;11.682;2023-08-06T06:39:05;1.37;;;1.27;;
38023;SDS011;23834;48.080;11.682;2023-08-06T06:41:30;1.30;;;1.20;;
38023;SDS011;23834;48.080;11.682;2023-08-06T06:43:58;1.47;;;1.37;;
38023;SDS011;23834;48.080;11.682;2023-08-06T06:46:23;1.30;;;1.20;;
38023;SDS011;23834;48.080;11.682;2023-08-06T06:48:48;1.17;;;1.07;;
38023;SDS011;23834;48.080;11.682;2023-08-06T06:51:13;1.40;;;1.30;;
38023;SDS011;23834;48.080;11.682;2023-08-06T06:53:38;1.77;;;1.60;;
38023;SDS011;23834;48.080;11.682;2023-08-06T06:56:04;1.33;;;1.23;;
38023;SDS011;23834;48.080;11.682;2023-08-06T06:58:32;1.40;;;1.30;;
38023;SDS011;23834;48.080;11.682;2023-08-06T07:00:57;1.23;;;1.13;;
38023;SDS011;23834;48.080;11.682;2023-08-06T07:03:23;1.07;;;1.07;;
38023;SDS011;23834;48.080;11.682;2023-08-06T07:05:48;1.40;;;1.30;;
38023;SDS011;23834;48.080;11.682;2023-08-06T07:08:14;1.00;;;1.00;;
38023;SDS011;23834;48.080;11.682;2023-08-06T07:10:40;1.00;;;1.00;;
38023;SDS011;23834;48.080;11.682;2023-08-06T07:13:05;1.30;;;1.20;;
38023;SDS011;23834;48.080;11.682;2023-08-06T07:15:31;0.97;;;0.97;;
38023;SDS011;23834;48.080;11.682;2023-08-06T07:17:56;1.20;;;1.10;;
38023;SDS011;23834;48.080;11.682;2023-08-06T07:20:21;1.37;;;1.27;;
38023;SDS011;23834;48.080;11.682;2023-08-06T07:22:46;1.20;;;1.10;;
38023;SDS011;23834;48.080;11.682;2023-08-06T07:25:12;1.53;;;1.23;;
38023;SDS011;23834;48.080;11.682;2023-08-06T07:27:37;0.97;;;0.97;;
38023;SDS011;23834;48.080;11.682;2023-08-06T07:30:02;1.27;;;0.90;;
38023;SDS011;23834;48.080;11.682;2023-08-06T07:32:28;1.50;;;1.40;;
38023;SDS011;23834;48.080;11.682;2023-08-06T07:34:53;1.30;;;1.20;;
38023;SDS011;23834;48.080;11.682;2023-08-06T07:37:22;1.10;;;1.10;;
38023;SDS011;23834;48.080;11.682;2023-08-06T07:39:47;1.33;;;1.00;;
38023;SDS011;23834;48.080;11.682;2023-08-06T07:42:12;1.37;;;1.23;;
38023;SDS011;23834;48.080;11.682;2023-08-06T07:44:37;0.70;;;0.70;;
38023;SDS011;23834;48.080;11.682;2023-08-06T07:47:02;1.60;;;1.50;;
38023;SDS011;23834;48.080;11.682;2023-08-06T07:49:28;1.00;;;1.00;;
38023;SDS011;23834;48.080;11.682;2023-08-06T07:51:53;1.10;;;1.00;;
38023;SDS011;23834;48.080;11.682;2023-08-06T07:54:18;1.27;;;1.20;;
38023;SDS011;23834;48.080;11.682;2023-08-06T07:56:43;1.17;;;1.07;;
38023;SDS011;23834;48.080;11.682;2023-08-06T07:59:09;1.33;;;1.23;;
38023;SDS011;23834;48.080;11.682;2023-08-06T08:01:34;1.00;;;1.00;;
38023;SDS011;23834;48.080;11.682;2023-08-06T08:03:59;1.10;;;1.00;;
38023;SDS011;23834;48.080;11.682;2023-08-06T08:06:25;1.10;;;1.10;;
38023;SDS011;23834;48.080;11.682;2023-08-06T08:08:50;1.13;;;1.03;;
38023;SDS011;23834;48.080;11.682;2023-08-06T08:11:16;1.10;;;1.10;;
38023;SDS011;23834;48.080;11.682;2023-08-06T08:13:42;1.10;;;0.90;;
38023;SDS011;23834;48.080;11.682;2023-08-06T08:16:07;1.00;;;1.00;;
38023;SDS011;23834;48.080;11.682;2023-08-06T08:18:33;0.80;;;0.80;;
38023;SDS011;23834;48.080;11.682;2023-08-06T08:20:58;1.27;;;1.20;;
38023;SDS011;23834;48.080;11.682;2023-08-06T08:23:23;0.97;;;0.93;;
38023;SDS011;23834;48.080;11.682;2023-08-06T08:25:48;1.10;;;1.10;;
38023;SDS011;23834;48.080;11.682;2023-08-06T08:28:13;1.27;;;1.17;;
38023;SDS011;23834;48.080;11.682;2023-08-06T08:30:40;1.03;;;0.90;;
38023;SDS011;23834;48.080;11.682;2023-08-06T08:33:05;0.97;;;0.90;;
38023;SDS011;23834;48.080;11.682;2023-08-06T08:35:30;1.00;;;0.90;;
38023;SDS011;23834;48.080;11.682;2023-08-06T08:37:55;1.30;;;1.20;;
38023;SDS011;23834;48.080;11.682;2023-08-06T08:40:21;0.90;;;0.90;;
38023;SDS011;23834;48.080;11.682;2023-08-06T08:42:48;0.80;;;0.80;;
38023;SDS011;23834;48.080;11.682;2023-08-06T08:45:14;1.07;;;0.97;;
38023;SDS011;23834;48.080;11.682;2023-08-06T08:47:40;0.90;;;0.90;;
38023;SDS011;23834;48.080;11.682;2023-08-06T08:50:06;0.97;;;0.97;;
38023;SDS011;23834;48.080;11.682;2023-08-06T08:52:31;1.33;;;1.27;;
38023;SDS011;23834;48.080;11.682;2023-08-06T08:54:59;0.80;;;0.80;;
38023;SDS011;23834;48.080;11.682;2023-08-06T08:57:26;0.90;;;0.90;;
38023;SDS011;23834;48.080;11.682;2023-08-06T08:59:51;1.27;;;1.10;;
38023;SDS011;23834;48.080;11.682;2023-08-06T09:02:16;1.00;;;0.90;;
38023;SDS011;23834;48.080;11.682;2023-08-06T09:04:42;1.63;;;0.80;;
38023;SDS011;23834;48.080;11.682;2023-08-06T09:07:07;0.90;;;0.90;;
38023;SDS011;23834;48.080;11.682;2023-08-06T09:09:35;1.17;;;0.70;;
38023;SDS011;23834;48.080;11.682;2023-08-06T09:12:06;1.17;;;0.80;;
38023;SDS011;23834;48.080;11.682;2023-08-06T09:14:35;0.90;;;0.70;;
38023;SDS011;23834;48.080;11.682;2023-08-06T09:17:00;0.80;;;0.80;;
38023;SDS011;23834;48.080;11.682;2023-08-06T09:19:26;1.43;;;0.90;;
38023;SDS011;23834;48.080;11.682;2023-08-06T09:21:51;1.40;;;1.20;;
38023;SDS011;23834;48.080;11.682;2023-08-06T09:24:16;0.70;;;0.70;;
38023;SDS011;23834;48.080;11.682;2023-08-06T09:26:44;1.30;;;0.80;;
38023;SDS011;23834;48.080;11.682;2023-08-06T09:29:10;1.03;;;1.03;;
38023;SDS011;23834;48.080;11.682;2023-08-06T09:31:48;0.87;;;0.87;;
38023;SDS011;23834;48.080;11.682;2023-08-06T09:34:17;0.87;;;0.87;;
38023;SDS011;23834;48.080;11.682;2023-08-06T09:36:43;1.13;;;0.90;;
38023;SDS011;23834;48.080;11.682;2023-08-06T09:39:15;0.70;;;0.70;;
38023;SDS011;23834;48.080;11.682;2023-08-06T09:41:41;0.90;;;0.90;;
38023;SDS011;23834;48.080;11.682;2023-08-06T09:44:13;0.87;;;0.87;;
38023;SDS011;23834;48.080;11.682;2023-08-06T09:46:40;1.07;;;0.97;;
38023;SDS011;23834;48.080;11.682;2023-08-06T09:49:05;0.83;;;0.83;;
38023;SDS011;23834;48.080;11.682;2023-08-06T09:51:33;0.70;;;0.70;;
38023;SDS011;23834;48.080;11.682;2023-08-06T09:53:58;0.70;;;0.70;;
38023;SDS011;23834;48.080;11.682;2023-08-06T09:56:24;0.90;;;0.70;;
38023;SDS011;23834;48.080;11.682;2023-08-06T09:58:51;0.80;;;0.70;;
38023;SDS011;23834;48.080;11.682;2023-08-06T10:01:17;0.70;;;0.70;;
38023;SDS011;23834;48.080;11.682;2023-08-06T10:03:42;0.87;;;0.87;;
38023;SDS011;23834;48.080;11.682;2023-08-06T10:06:08;0.97;;;0.87;;
38023;SDS011;23834;48.080;11.682;2023-08-06T10:08:34;0.80;;;0.80;;
38023;SDS011;23834;48.080;11.682;2023-08-06T10:10:59;0.70;;;0.70;;
38023;SDS011;23834;48.080;11.682;2023-08-06T10:13:25;0.70;;;0.63;;
38023;SDS011;23834;48.080;11.682;2023-08-06T10:15:50;0.70;;;0.70;;
38023;SDS011;23834;48.080;11.682;2023-08-06T10:18:16;0.60;;;0.60;;
38023;SDS011;23834;48.080;11.682;2023-08-06T10:20:46;0.63;;;0.63;;
38023;SDS011;23834;48.080;11.682;2023-08-06T10:23:11;0.60;;;0.60;;
38023;SDS011;23834;48.080;11.682;2023-08-06T10:25:42;0.90;;;0.90;;
38023;SDS011;23834;48.080;11.682;2023-08-06T10:28:08;0.97;;;0.70;;
38023;SDS011;23834;48.080;11.682;2023-08-06T10:30:34;0.70;;;0.70;;
38023;SDS011;23834;48.080;11.682;2023-08-06T10:33:05;0.60;;;0.60;;
38023;SDS011;23834;48.080;11.682;2023-08-06T10:35:34;0.60;;;0.53;;
38023;SDS011;23834;48.080;11.682;2023-08-06T10:40:28;0.60;;;0.60;;
38023;SDS011;23834;48.080;11.682;2023-08-06T10:42:55;0.60;;;0.60;;
38023;SDS011;23834;48.080;11.682;2023-08-06T10:45:21;0.80;;;0.70;;
38023;SDS011;23834;48.080;11.682;2023-08-06T10:47:49;0.60;;;0.50;;
38023;SDS011;23834;48.080;11.682;2023-08-06T10:50:15;1.10;;;0.73;;
38023;SDS011;23834;48.080;11.682;2023-08-06T10:52:42;0.70;;;0.70;;
38023;SDS011;23834;48.080;11.682;2023-08-06T10:55:07;0.80;;;0.70;;
38023;SDS011;23834;48.080;11.682;2023-08-06T10:57:34;0.60;;;0.60;;
38023;SDS011;23834;48.080;11.682;2023-08-06T10:59:59;0.60;;;0.60;;
38023;SDS011;23834;48.080;11.682;2023-08-06T11:02:24;0.77;;;0.77;;
38023;SDS011;23834;48.080;11.682;2023-08-06T11:04:50;1.23;;;0.63;;
38023;SDS011;23834;48.080;11.682;2023-08-06T11:07:15;0.73;;;0.73;;
38023;SDS011;23834;48.080;11.682;2023-08-06T11:09:40;0.60;;;0.60;;
38023;SDS011;23834;48.080;11.682;2023-08-06T11:12:09;0.70;;;0.70;;
38023;SDS011;23834;48.080;11.682;2023-08-06T11:14:34;0.50;;;0.50;;
38023;SDS011;23834;48.080;11.682;2023-08-06T11:17:00;0.70;;;0.60;;
38023;SDS011;23834;48.080;11.682;2023-08-06T11:19:25;0.93;;;0.60;;
38023;SDS011;23834;48.080;11.682;2023-08-06T11:21:51;0.90;;;0.50;;
38023;SDS011;23834;48.080;11.682;2023-08-06T11:24:16;0.50;;;0.50;;
38023;SDS011;23834;48.080;11.682;2023-08-06T11:26:42;0.60;;;0.60;;
38023;SDS011;23834;48.080;11.682;2023-08-06T11:29:09;0.80;;;0.80;;
38023;SDS011;23834;48.080;11.682;2023-08-06T11:31:35;0.60;;;0.60;;
38023;SDS011;23834;48.080;11.682;2023-08-06T11:34:00;0.50;;;0.50;;
38023;SDS011;23834;48.080;11.682;2023-08-06T11:36:29;0.50;;;0.50;;
38023;SDS011;23834;48.080;11.682;2023-08-06T11:38:55;0.50;;;0.47;;
38023;SDS011;23834;48.080;11.682;2023-08-06T11:41:20;0.50;;;0.50;;
38023;SDS011;23834;48.080;11.682;2023-08-06T11:43:45;0.60;;;0.40;;
38023;SDS011;23834;48.080;11.682;2023-08-06T11:46:11;0.53;;;0.53;;
38023;SDS011;23834;48.080;11.682;2023-08-06T11:48:50;0.50;;;0.40;;
38023;SDS011;23834;48.080;11.682;2023-08-06T11:51:15;0.60;;;0.50;;
38023;SDS011;23834;48.080;11.682;2023-08-06T11:53:40;1.17;;;0.50;;
38023;SDS011;23834;48.080;11.682;2023-08-06T11:56:05;0.50;;;0.40;;
38023;SDS011;23834;48.080;11.682;2023-08-06T11:58:31;0.67;;;0.40;;
38023;SDS011;23834;48.080;11.682;2023-08-06T12:00:56;0.50;;;0.37;;
38023;SDS011;23834;48.080;11.682;2023-08-06T12:03:22;0.50;;;0.40;;
38023;SDS011;23834;48.080;11.682;2023-08-06T12:05:53;0.63;;;0.50;;
38023;SDS011;23834;48.080;11.682;2023-08-06T12:08:18;0.50;;;0.50;;
38023;SDS011;23834;48.080;11.682;2023-08-06T12:10:44;0.63;;;0.50;;
38023;SDS011;23834;48.080;11.682;2023-08-06T12:13:09;0.50;;;0.40;;
38023;SDS011;23834;48.080;11.682;2023-08-06T12:15:34;0.50;;;0.40;;
38023;SDS011;23834;48.080;11.682;2023-08-06T12:17:59;0.47;;;0.33;;
38023;SDS011;23834;48.080;11.682;2023-08-06T12:20:25;0.50;;;0.40;;
38023;SDS011;23834;48.080;11.682;2023-08-06T12:22:50;0.40;;;0.30;;
38023;SDS011;23834;48.080;11.682;2023-08-06T12:25:15;0.50;;;0.50;;
38023;SDS011;23834;48.080;11.682;2023-08-06T12:27:41;0.40;;;0.30;;
38023;SDS011;23834;48.080;11.682;2023-08-06T12:30:07;0.50;;;0.40;;
38023;SDS011;23834;48.080;11.682;2023-08-06T12:32:33;0.40;;;0.30;;
38023;SDS011;23834;48.080;11.682;2023-08-06T12:34:58;0.60;;;0.50;;
38023;SDS011;23834;48.080;11.682;2023-08-06T12:37:24;0.40;;;0.30;;
38023;SDS011;23834;48.080;11.682;2023-08-06T12:39:49;0.50;;;0.40;;
38023;SDS011;23834;48.080;11.682;2023-08-06T12:42:15;0.60;;;0.60;;
38023;SDS011;23834;48.080;11.682;2023-08-06T12:44:40;0.77;;;0.40;;
38023;SDS011;23834;48.080;11.682;2023-08-06T12:47:07;0.50;;;0.50;;
38023;SDS011;23834;48.080;11.682;2023-08-06T12:49:32;0.50;;;0.50;;
38023;SDS011;23834;48.080;11.682;2023-08-06T12:51:58;0.60;;;0.60;;
38023;SDS011;23834;48.080;11.682;2023-08-06T12:54:24;0.83;;;0.60;;
38023;SDS011;23834;48.080;11.682;2023-08-06T12:56:50;0.50;;;0.40;;
38023;SDS011;23834;48.080;11.682;2023-08-06T12:59:15;0.50;;;0.40;;
38023;SDS011;23834;48.080;11.682;2023-08-06T13:01:41;0.50;;;0.40;;
38023;SDS011;23834;48.080;11.682;2023-08-06T13:04:06;0.93;;;0.60;;
38023;SDS011;23834;48.080;11.682;2023-08-06T13:06:31;0.70;;;0.50;;
38023;SDS011;23834;48.080;11.682;2023-08-06T13:09:01;0.60;;;0.50;;
38023;SDS011;23834;48.080;11.682;2023-08-06T13:11:27;0.50;;;0.43;;
38023;SDS011;23834;48.080;11.682;2023-08-06T13:13:52;0.90;;;0.50;;
38023;SDS011;23834;48.080;11.682;2023-08-06T13:16:17;0.50;;;0.40;;
38023;SDS011;23834;48.080;11.682;2023-08-06T13:18:42;0.63;;;0.50;;
38023;SDS011;23834;48.080;11.682;2023-08-06T13:21:07;0.87;;;0.50;;
38023;SDS011;23834;48.080;11.682;2023-08-06T13:23:33;0.40;;;0.40;;
38023;SDS011;23834;48.080;11.682;2023-08-06T13:25:58;0.60;;;0.50;;
38023;SDS011;23834;48.080;11.682;2023-08-06T13:28:23;0.50;;;0.50;;
38023;SDS011;23834;48.080;11.682;2023-08-06T13:30:49;0.60;;;0.50;;
38023;SDS011;23834;48.080;11.682;2023-08-06T13:33:14;0.57;;;0.40;;
38023;SDS011;23834;48.080;11.682;2023-08-06T13:35:39;0.50;;;0.30;;
38023;SDS011;23834;48.080;11.682;2023-08-06T13:38:04;0.50;;;0.30;;
38023;SDS011;23834;48.080;11.682;2023-08-06T13:40:31;0.70;;;0.60;;
38023;SDS011;23834;48.080;11.682;2023-08-06T13:42:57;1.30;;;1.20;;
38023;SDS011;23834;48.080;11.682;2023-08-06T13:45:22;1.47;;;1.37;;
38023;SDS011;23834;48.080;11.682;2023-08-06T13:47:47;1.67;;;1.23;;
38023;SDS011;23834;48.080;11.682;2023-08-06T13:50:13;1.20;;;1.10;;
38023;SDS011;23834;48.080;11.682;2023-08-06T13:52:38;1.03;;;1.00;;
38023;SDS011;23834;48.080;11.682;2023-08-06T13:55:03;0.93;;;0.90;;
38023;SDS011;23834;48.080;11.682;2023-08-06T13:57:29;1.10;;;1.00;;
38023;SDS011;23834;48.080;11.682;2023-08-06T13:59:54;1.10;;;1.00;;
38023;SDS011;23834;48.080;11.682;2023-08-06T14:02:19;1.43;;;1.10;;
38023;SDS011;23834;48.080;11.682;2023-08-06T14:04:44;1.20;;;1.10;;
38023;SDS011;23834;48.080;11.682;2023-08-06T14:07:09;0.83;;;0.83;;
38023;SDS011;23834;48.080;11.682;2023-08-06T14:09:35;1.33;;;1.23;;
38023;SDS011;23834;48.080;11.682;2023-08-06T14:12:00;0.73;;;0.73;;
38023;SDS011;23834;48.080;11.682;2023-08-06T14:14:25;0.80;;;0.80;;
38023;SDS011;23834;48.080;11.682;2023-08-06T14:16:53;1.00;;;1.00;;
38023;SDS011;23834;48.080;11.682;2023-08-06T14:19:19;1.37;;;0.70;;
38023;SDS011;23834;48.080;11.682;2023-08-06T14:21:44;1.60;;;0.90;;
38023;SDS011;23834;48.080;11.682;2023-08-06T14:24:09;0.80;;;0.80;;
38023;SDS011;23834;48.080;11.682;2023-08-06T14:26:35;1.17;;;0.73;;
38023;SDS011;23834;48.080;11.682;2023-08-06T14:29:00;0.77;;;0.70;;
38023;SDS011;23834;48.080;11.682;2023-08-06T14:31:25;0.90;;;0.70;;